Time;durP1;ratioP1;P1;durP2;ratioP2;P2;SDS_P1;SDS_P2;PMS_P1;PMS_P2;Temp;Humidity;BMP_temperature;BMP_pressure;BME280_temperature;BME280_humidity;BME280_pressure;Samples;Min_cycle;Max_cycle;Signal;HPM_P1;HPM_P2
2021/04/01 00:01:46;;;;;;;34.40;11.48;;;13.80;99.90;;;;;;5047370;28;20033;-70
2021/04/01 00:04:12;;;;;;;29.77;12.00;;;13.80;99.90;;;;;;5047051;28;20073;-70
2021/04/01 00:06:37;;;;;;;25.58;11.23;;;13.90;99.90;;;;;;5047303;28;20025;-70
2021/04/01 00:09:04;;;;;;;29.30;11.40;;;13.90;99.90;;;;;;5046926;28;20025;-71
2021/04/01 00:11:29;;;;;;;23.02;10.30;;;13.90;99.90;;;;;;5046927;28;20049;-70
2021/04/01 00:13:55;;;;;;;25.23;11.23;;;13.90;99.60;;;;;;5046901;28;20037;-72
2021/04/01 00:16:22;;;;;;;25.02;11.18;;;13.90;99.90;;;;;;5047001;28;20112;-71
2021/04/01 00:18:48;;;;;;;39.15;11.45;;;14.00;99.90;;;;;;5047055;28;20049;-72
2021/04/01 00:21:14;;;;;;;30.38;11.95;;;14.10;99.90;;;;;;5047384;28;20034;-72
2021/04/01 00:23:40;;;;;;;26.05;11.02;;;14.10;99.90;;;;;;5045307;28;20052;-71
2021/04/01 00:26:06;;;;;;;29.98;12.57;;;14.10;99.90;;;;;;5045528;28;20034;-70
2021/04/01 00:28:32;;;;;;;29.17;11.10;;;14.20;99.90;;;;;;5045530;28;20036;-70
2021/04/01 00:30:58;;;;;;;26.73;11.13;;;14.20;99.90;;;;;;5027390;28;20030;-72
2021/04/01 00:33:24;;;;;;;31.00;11.65;;;14.20;99.90;;;;;;5026685;28;20034;-72
2021/04/01 00:35:50;;;;;;;29.23;12.38;;;14.20;99.90;;;;;;5027030;28;20046;-72
2021/04/01 00:38:23;;;;;;;24.17;11.10;;;14.20;99.90;;;;;;5026636;28;20025;-74
2021/04/01 00:40:49;;;;;;;27.48;10.65;;;14.20;99.90;;;;;;5026725;28;20038;-71
2021/04/01 00:43:14;;;;;;;21.80;10.88;;;14.20;99.90;;;;;;5026410;28;20809;-71
2021/04/01 00:45:40;;;;;;;33.30;11.55;;;14.20;99.90;;;;;;5026610;28;20041;-70
2021/04/01 00:48:06;;;;;;;34.88;11.13;;;14.20;99.90;;;;;;5026515;28;20046;-72
2021/04/01 00:50:31;;;;;;;28.27;10.55;;;14.10;99.90;;;;;;5026484;28;20033;-72
2021/04/01 00:52:58;;;;;;;29.88;11.10;;;14.00;99.90;;;;;;5026456;28;20085;-71
2021/04/01 00:55:25;;;;;;;31.65;10.48;;;13.90;99.90;;;;;;5025377;28;20034;-72
2021/04/01 00:57:53;;;;;;;26.10;10.43;;;13.90;99.90;;;;;;5025283;28;20056;-72
2021/04/01 01:00:23;;;;;;;30.15;11.05;;;14.00;99.90;;;;;;5026170;28;20029;-71
2021/04/01 01:02:49;;;;;;;31.67;11.95;;;14.00;99.90;;;;;;5026700;28;20029;-72
2021/04/01 01:05:15;;;;;;;18.85;9.48;;;14.00;99.90;;;;;;5025095;28;20030;-72
2021/04/01 01:07:41;;;;;;;37.35;11.88;;;14.00;99.90;;;;;;5024997;28;20044;-72
2021/04/01 01:10:10;;;;;;;25.02;9.73;;;14.00;99.90;;;;;;5026250;28;20018;-71
2021/04/01 01:12:35;;;;;;;29.25;12.65;;;14.00;99.90;;;;;;5026161;28;20028;-73
2021/04/01 01:15:02;;;;;;;29.15;11.48;;;14.00;99.90;;;;;;5025964;28;20034;-72
2021/04/01 01:17:28;;;;;;;34.58;12.50;;;13.80;99.90;;;;;;5025839;28;20061;-71
2021/04/01 01:19:54;;;;;;;31.70;11.23;;;13.80;99.90;;;;;;5024670;28;20022;-71
2021/04/01 01:22:21;;;;;;;31.63;12.60;;;13.70;99.90;;;;;;5025833;28;20068;-72
2021/04/01 01:24:47;;;;;;;42.30;12.10;;;13.80;99.90;;;;;;5025837;28;20482;-72
2021/04/01 01:27:13;;;;;;;32.15;10.68;;;13.80;99.90;;;;;;5026106;28;20045;-72
2021/04/01 01:29:39;;;;;;;37.67;13.13;;;13.80;99.90;;;;;;5025872;28;20018;-71
2021/04/01 01:32:05;;;;;;;28.08;12.15;;;13.70;99.90;;;;;;5026059;28;20034;-71
2021/04/01 01:34:35;;;;;;;27.17;12.38;;;13.80;99.90;;;;;;5024227;28;20026;-71
2021/04/01 01:37:02;;;;;;;32.10;11.50;;;13.80;99.90;;;;;;5024498;28;20077;-70
2021/04/01 01:39:28;;;;;;;33.78;11.88;;;13.80;99.90;;;;;;5025625;28;20485;-72
2021/04/01 01:41:53;;;;;;;36.33;11.77;;;13.70;99.90;;;;;;5025600;28;20030;-72
2021/04/01 01:44:19;;;;;;;37.05;12.27;;;13.80;99.90;;;;;;5025317;28;20482;-72
2021/04/01 01:46:45;;;;;;;29.95;11.82;;;13.70;99.90;;;;;;5024389;28;20093;-71
2021/04/01 01:49:10;;;;;;;34.70;11.80;;;13.80;99.90;;;;;;5025525;28;20029;-71
2021/04/01 01:51:36;;;;;;;35.85;11.30;;;13.80;99.90;;;;;;5025510;28;20044;-72
2021/04/01 01:54:02;;;;;;;38.35;12.40;;;13.90;99.90;;;;;;5025227;28;20041;-71
2021/04/01 01:56:27;;;;;;;34.63;11.52;;;13.90;99.90;;;;;;5025328;28;20441;-72
2021/04/01 01:58:55;;;;;;;36.28;11.30;;;13.90;99.90;;;;;;5025317;28;20033;-72
2021/04/01 02:01:21;;;;;;;30.92;11.80;;;13.80;99.90;;;;;;5024174;28;20034;-71
2021/04/01 02:03:47;;;;;;;31.75;12.00;;;13.90;99.90;;;;;;5023958;28;20042;-72
2021/04/01 02:06:14;;;;;;;24.25;11.63;;;13.80;99.90;;;;;;5025552;28;20455;-71
2021/04/01 02:08:40;;;;;;;31.60;11.63;;;13.90;99.90;;;;;;5025202;28;20025;-73
2021/04/01 02:11:08;;;;;;;28.08;11.30;;;13.90;99.90;;;;;;5025093;28;20033;-72
2021/04/01 02:13:34;;;;;;;39.38;11.80;;;13.90;99.90;;;;;;5024463;28;20040;-72
2021/04/01 02:16:00;;;;;;;27.20;12.05;;;13.80;99.90;;;;;;5025094;28;20113;-71
2021/04/01 02:18:30;;;;;;;30.58;12.50;;;13.90;99.90;;;;;;5024702;28;20064;-72
2021/04/01 02:21:00;;;;;;;26.05;10.55;;;13.90;99.90;;;;;;5024950;28;20026;-73
2021/04/01 02:23:29;;;;;;;28.08;11.10;;;13.90;99.90;;;;;;5025140;28;20041;-74
2021/04/01 02:25:57;;;;;;;27.48;12.30;;;13.90;99.90;;;;;;5024924;28;20082;-73
2021/04/01 02:28:28;;;;;;;28.58;11.02;;;13.90;99.90;;;;;;5024982;28;20038;-71
2021/04/01 02:30:57;;;;;;;37.03;12.95;;;14.00;99.90;;;;;;5024808;28;20085;-73
2021/04/01 02:33:25;;;;;;;34.33;11.90;;;14.00;99.90;;;;;;5024951;28;20045;-72
2021/04/01 02:35:51;;;;;;;32.63;13.23;;;14.00;99.90;;;;;;5024841;28;20504;-73
2021/04/01 02:38:18;;;;;;;27.05;11.70;;;14.10;99.90;;;;;;5025228;28;20080;-73
2021/04/01 02:40:44;;;;;;;36.80;12.55;;;14.00;99.90;;;;;;5024921;28;20049;-72
2021/04/01 02:43:12;;;;;;;33.22;12.13;;;14.00;99.90;;;;;;5024729;28;20033;-71
2021/04/01 02:45:37;;;;;;;31.65;11.20;;;14.00;99.90;;;;;;5024793;28;20066;-71
2021/04/01 02:48:03;;;;;;;37.83;12.73;;;14.00;99.90;;;;;;5024736;28;20034;-73
2021/04/01 02:50:29;;;;;;;29.58;11.65;;;14.00;99.90;;;;;;5024518;28;20034;-73
2021/04/01 02:52:55;;;;;;;24.70;9.20;;;14.00;99.90;;;;;;5024652;28;20033;-71
2021/04/01 02:55:20;;;;;;;35.53;13.20;;;14.00;99.90;;;;;;5024618;28;20026;-73
2021/04/01 02:57:46;;;;;;;32.00;12.52;;;14.00;99.90;;;;;;5024876;28;20081;-73
2021/04/01 03:00:16;;;;;;;40.10;13.38;;;14.00;99.90;;;;;;5023313;28;20049;-71
2021/04/01 03:02:47;;;;;;;27.30;11.98;;;14.00;99.90;;;;;;5024578;28;20702;-71
2021/04/01 03:05:13;;;;;;;33.92;12.27;;;14.00;99.90;;;;;;5024578;28;20026;-73
2021/04/01 03:07:39;;;;;;;28.23;11.68;;;13.90;99.90;;;;;;5024583;28;20037;-72
2021/04/01 03:10:08;;;;;;;31.45;11.98;;;13.80;99.90;;;;;;5023189;28;20034;-71
2021/04/01 03:12:34;;;;;;;29.88;10.70;;;13.80;99.90;;;;;;5024368;28;20046;-73
2021/04/01 03:15:00;;;;;;;34.67;13.15;;;13.70;99.90;;;;;;5024397;28;20030;-73
2021/04/01 03:17:25;;;;;;;30.08;11.70;;;13.60;99.90;;;;;;5024392;28;20054;-73
2021/04/01 03:19:51;;;;;;;34.38;13.43;;;13.60;99.90;;;;;;5024825;28;20026;-73
2021/04/01 03:22:17;;;;;;;32.42;12.80;;;13.60;99.90;;;;;;5024670;28;20097;-70
2021/04/01 03:24:42;;;;;;;32.78;12.73;;;13.70;99.90;;;;;;5025253;28;20109;-71
2021/04/01 03:27:08;;;;;;;35.92;13.55;;;13.60;99.90;;;;;;5028334;28;20026;-71
2021/04/01 03:29:34;;;;;;;30.65;12.65;;;13.60;99.90;;;;;;5027970;28;20041;-72
2021/04/01 03:32:00;;;;;;;37.50;13.40;;;13.60;99.90;;;;;;5026820;28;20494;-70
2021/04/01 03:34:25;;;;;;;33.95;13.02;;;13.50;99.90;;;;;;5026503;28;20033;-71
2021/04/01 03:36:51;;;;;;;44.75;14.82;;;13.60;99.90;;;;;;5026835;28;20032;-72
2021/04/01 03:39:17;;;;;;;44.28;14.82;;;13.50;99.90;;;;;;5028064;28;20082;-72
2021/04/01 03:41:42;;;;;;;36.90;14.05;;;13.50;99.90;;;;;;5027912;28;20085;-72
2021/04/01 03:44:08;;;;;;;43.65;15.40;;;13.50;99.90;;;;;;5026308;28;20407;-71
2021/04/01 03:46:37;;;;;;;42.30;17.00;;;13.60;99.90;;;;;;5027658;28;20041;-71
2021/04/01 03:49:04;;;;;;;43.83;14.63;;;13.70;98.40;;;;;;5027664;28;20018;-71
2021/04/01 03:51:30;;;;;;;45.88;15.32;;;13.60;97.90;;;;;;5027615;28;20056;-72
2021/04/01 03:53:55;;;;;;;38.90;15.80;;;13.60;97.20;;;;;;5027653;28;20030;-72
2021/04/01 03:56:21;;;;;;;41.83;15.98;;;13.60;96.90;;;;;;5026261;28;20030;-71
2021/04/01 03:58:55;;;;;;;53.85;16.05;;;13.60;96.40;;;;;;5027823;28;20026;-73
2021/04/01 04:11:53;;;;;;;47.47;17.10;;;13.30;96.90;;;;;;5027154;28;20041;-70
2021/04/01 04:14:25;;;;;;;62.28;17.95;;;13.20;97.00;;;;;;5027652;28;20026;-71
2021/04/01 04:16:51;;;;;;;43.70;16.65;;;13.10;97.50;;;;;;5027134;28;20033;-70
2021/04/01 04:19:16;;;;;;;43.05;17.38;;;13.20;97.70;;;;;;5027388;28;20049;-72
2021/04/01 04:21:42;;;;;;;45.95;16.33;;;13.10;98.00;;;;;;5027137;28;20502;-71
2021/04/01 04:24:10;;;;;;;53.75;18.08;;;13.10;98.20;;;;;;5026926;28;20037;-70
2021/04/01 04:26:36;;;;;;;57.92;17.17;;;13.00;98.40;;;;;;5025544;28;20097;-71
2021/04/01 04:29:02;;;;;;;51.65;18.88;;;13.00;99.00;;;;;;5026999;28;20041;-72
2021/04/01 04:31:28;;;;;;;40.05;18.05;;;12.90;99.30;;;;;;5027062;28;20033;-72
2021/04/01 04:33:53;;;;;;;52.30;19.48;;;12.90;99.80;;;;;;5026937;28;20080;-70
2021/04/01 04:36:19;;;;;;;44.75;17.00;;;12.80;99.90;;;;;;5026438;28;20427;-71
2021/04/01 04:38:44;;;;;;;48.03;18.60;;;12.70;99.90;;;;;;5026901;28;20025;-71
2021/04/01 04:41:10;;;;;;;60.30;18.23;;;12.70;99.90;;;;;;5025395;28;20045;-72
2021/04/01 04:43:36;;;;;;;44.65;17.92;;;12.60;99.90;;;;;;5026579;28;20034;-72
2021/04/01 04:46:02;;;;;;;54.28;19.70;;;12.70;99.90;;;;;;5026589;28;20036;-70
2021/04/01 04:48:28;;;;;;;57.20;19.27;;;12.60;99.90;;;;;;5026509;28;20026;-71
2021/04/01 04:50:54;;;;;;;43.15;17.60;;;12.70;99.90;;;;;;5026756;28;20030;-71
2021/04/01 04:53:20;;;;;;;41.97;17.92;;;12.70;99.90;;;;;;5025338;28;20060;-72
2021/04/01 05:06:06;;;;;;;49.60;19.92;;;12.70;99.90;;;;;;5026340;28;20036;-71
2021/04/01 05:08:32;;;;;;;44.63;18.25;;;12.60;99.90;;;;;;5026014;28;20093;-70
2021/04/01 05:10:58;;;;;;;48.08;16.58;;;12.50;99.90;;;;;;5025898;28;20028;-70
2021/04/01 05:13:24;;;;;;;63.10;20.30;;;12.40;99.90;;;;;;5024098;28;20072;-70
2021/04/01 05:15:50;;;;;;;47.55;19.17;;;12.40;99.90;;;;;;5025822;28;20022;-69
2021/04/01 05:18:26;;;;;;;60.70;19.75;;;12.30;99.90;;;;;;5024801;28;20042;-70
2021/04/01 05:20:53;;;;;;;48.58;19.33;;;12.20;99.90;;;;;;5026065;28;20040;-70
2021/04/01 05:25:50;;;;;;;62.30;20.08;;;12.10;99.90;;;;;;5025889;28;20057;-72
2021/04/01 05:28:34;;;;;;;65.65;20.30;;;12.00;99.90;;;;;;5043699;28;20029;-72
2021/04/01 05:31:03;;;;;;;51.33;19.48;;;12.10;99.90;;;;;;5050959;28;20488;-71
2021/04/01 05:33:34;;;;;;;56.50;20.17;;;12.00;99.90;;;;;;5065181;28;20025;-70
2021/04/01 05:36:02;;;;;;;49.78;21.50;;;12.00;99.90;;;;;;5051014;28;20021;-72
2021/04/01 05:38:27;;;;;;;45.72;18.95;;;12.00;99.90;;;;;;5045635;28;20033;-72
2021/04/01 05:40:53;;;;;;;60.53;19.90;;;12.00;99.90;;;;;;5045289;28;20036;-72
2021/04/01 05:43:22;;;;;;;50.30;19.70;;;12.00;99.90;;;;;;5047650;28;20037;-72
2021/04/01 05:45:59;;;;;;;56.38;20.63;;;12.10;99.90;;;;;;5065369;28;20661;-72
2021/04/01 05:48:41;;;;;;;59.72;21.17;;;12.00;99.90;;;;;;5064232;28;20021;-70
2021/04/01 05:51:51;;;;;;;58.25;21.60;;;12.00;99.90;;;;;;5065079;28;20710;-71
2021/04/01 05:57:17;;;;;;;50.30;22.52;;;11.90;99.90;;;;;;5064982;28;20164;-72
2021/04/01 05:59:38;;;;;;;58.03;20.75;;;11.90;99.90;;;;;;5056454;28;20037;-72
2021/04/01 06:04:40;;;;;;;51.03;21.23;;;11.80;99.90;;;;;;5024820;28;20324;-71
2021/04/01 06:07:18;;;;;;;67.13;22.65;;;11.80;99.90;;;;;;5027389;28;20036;-71
2021/04/01 06:09:49;;;;;;;62.97;22.60;;;11.90;99.90;;;;;;5043515;28;20029;-70
2021/04/01 06:12:15;;;;;;;58.67;22.65;;;11.90;99.90;;;;;;5044879;28;20033;-71
2021/04/01 06:15:09;;;;;;;55.95;20.10;;;11.80;99.90;;;;;;5044115;28;20029;-72
2021/04/01 06:17:35;;;;;;;61.03;21.93;;;11.80;99.90;;;;;;5044519;28;20115;-72
2021/04/01 06:20:06;;;;;;;58.63;21.52;;;11.90;99.90;;;;;;5044512;28;20472;-71
2021/04/01 06:22:32;;;;;;;67.25;22.48;;;11.70;99.90;;;;;;5044035;28;20474;-72
2021/04/01 06:24:58;;;;;;;62.42;23.10;;;11.70;99.90;;;;;;5044018;28;20049;-73
2021/04/01 06:27:36;;;;;;;56.67;23.55;;;11.60;99.90;;;;;;5043730;28;20056;-72
2021/04/01 06:30:14;;;;;;;71.70;27.65;;;11.60;99.90;;;;;;5044526;28;20022;-71
2021/04/01 06:32:53;;;;;;;80.93;27.20;;;11.40;99.90;;;;;;5044636;28;20033;-72
2021/04/01 06:38:20;;;;;;;76.60;27.92;;;11.30;99.90;;;;;;5044558;28;20041;-72
2021/04/01 06:41:03;;;;;;;77.25;30.60;;;11.20;99.90;;;;;;5064569;28;20374;-73
2021/04/01 06:43:58;;;;;;;90.18;30.65;;;11.20;99.90;;;;;;5044279;28;20044;-73
2021/04/01 06:46:30;;;;;;;75.68;27.27;;;11.20;99.90;;;;;;5052095;28;20041;-72
2021/04/01 06:49:24;;;;;;;74.05;27.27;;;11.10;99.90;;;;;;5044415;28;20085;-71
2021/04/01 06:52:04;;;;;;;66.82;25.15;;;11.10;99.90;;;;;;5044345;28;20030;-71
2021/04/01 06:54:38;;;;;;;68.55;25.75;;;11.10;99.90;;;;;;5044382;28;20024;-73
2021/04/01 07:00:32;;;;;;;66.63;24.95;;;11.30;99.90;;;;;;5047266;28;20045;-70
2021/04/01 07:03:18;;;;;;;62.10;24.90;;;11.30;99.90;;;;;;5047998;28;20036;-72
2021/04/01 07:06:02;;;;;;;62.92;26.10;;;11.30;99.90;;;;;;5048368;28;20116;-71
2021/04/01 07:08:36;;;;;;;;;;;11.30;99.90;;;;;;5048700;28;20128;-71
2021/04/01 07:11:07;;;;;;;65.68;26.55;;;11.30;99.90;;;;;;5047881;28;19909;-72
2021/04/01 07:13:42;;;;;;;63.20;23.80;;;11.30;99.90;;;;;;5048084;28;20025;-73
2021/04/01 07:16:23;;;;;;;67.60;22.48;;;11.20;99.90;;;;;;5047935;28;20508;-72
2021/04/01 07:19:17;;;;;;;56.10;22.23;;;11.30;99.90;;;;;;5048008;28;20409;-72
2021/04/01 07:45:51;;;;;;;14.50;5.22;;;11.50;99.90;;;;;;5046955;28;20044;-72
2021/04/01 07:47:39;;;;;;;8.95;3.65;;;11.40;99.90;;;;;;5052187;28;20041;-72
2021/04/01 07:50:27;;;;;;;13.27;2.58;;;11.50;99.90;;;;;;5047385;28;20021;-73
2021/04/01 07:52:59;;;;;;;4.78;2.70;;;11.60;99.90;;;;;;5046420;28;20033;-70
2021/04/01 07:58:17;;;;;;;6.28;2.63;;;11.50;99.90;;;;;;5047319;28;20397;-72
2021/04/01 08:00:53;;;;;;;7.05;2.03;;;11.60;99.90;;;;;;5047127;28;20025;-74
2021/04/01 08:06:15;;;;;;;5.22;1.30;;;12.10;99.90;;;;;;5047051;28;20417;-73
2021/04/01 08:08:46;;;;;;;9.23;2.00;;;12.30;99.90;;;;;;5045959;28;20041;-71
2021/04/01 08:11:24;;;;;;;10.90;2.90;;;12.40;99.90;;;;;;5044139;28;20026;-72
2021/04/01 08:14:01;;;;;;;4.55;1.90;;;12.40;99.90;;;;;;5046650;28;20459;-73
2021/04/01 08:16:28;;;;;;;6.25;1.92;;;12.20;99.90;;;;;;5047306;28;20025;-74
2021/04/01 08:18:59;;;;;;;10.85;2.03;;;12.30;99.90;;;;;;5058173;28;20076;-75
2021/04/01 08:21:27;;;;;;;8.82;1.98;;;11.90;99.90;;;;;;5044487;28;20037;-76
2021/04/01 08:24:07;;;;;;;12.90;2.35;;;11.80;99.90;;;;;;5027287;28;20042;-75
2021/04/01 08:32:15;;;;;;;5.40;1.75;;;11.50;99.90;;;;;;5065174;28;20044;-74
2021/04/01 08:34:41;;;;;;;6.60;2.08;;;11.50;99.90;;;;;;5044171;28;20069;-74
2021/04/01 08:37:09;;;;;;;10.13;1.85;;;11.50;99.90;;;;;;5043876;28;20528;-73
2021/04/01 08:39:36;;;;;;;17.58;2.28;;;11.60;99.90;;;;;;5052342;28;20068;-74
2021/04/01 08:42:18;;;;;;;6.75;2.45;;;11.90;99.90;;;;;;5056053;28;20032;-74
2021/04/01 08:45:52;;;;;;;4.47;1.77;;;11.90;99.90;;;;;;5053247;28;20037;-72
2021/04/01 08:48:20;;;;;;;9.57;2.30;;;11.80;99.90;;;;;;5050523;28;20037;-71
2021/04/01 08:51:12;;;;;;;10.27;2.00;;;12.00;99.90;;;;;;5047575;28;20657;-74
2021/04/01 08:54:21;;;;;;;5.97;2.40;;;12.30;99.90;;;;;;5053390;28;20037;-72
2021/04/01 08:56:57;;;;;;;7.55;2.78;;;12.70;99.90;;;;;;5049105;28;20097;-72
2021/04/01 08:59:47;;;;;;;8.38;2.63;;;13.00;99.90;;;;;;5061754;28;20030;-73
2021/04/01 09:02:18;;;;;;;5.57;2.47;;;13.10;99.90;;;;;;5051866;28;20128;-71
2021/04/01 09:04:50;;;;;;;6.53;2.92;;;13.00;99.90;;;;;;5061089;28;20037;-74
2021/04/01 09:07:37;;;;;;;7.00;2.97;;;12.90;99.90;;;;;;5057996;28;20091;-73
2021/04/01 09:10:10;;;;;;;8.90;1.80;;;13.00;99.90;;;;;;5045747;28;20025;-72
2021/04/01 09:12:47;;;;;;;3.00;1.73;;;12.90;99.90;;;;;;5045690;28;20040;-73
2021/04/01 09:15:59;;;;;;;10.73;2.05;;;12.80;99.90;;;;;;5044250;28;20057;-72
2021/04/01 09:18:05;;;;;;;5.50;1.48;;;12.80;99.90;;;;;;5047389;28;20132;-72
2021/04/01 09:20:32;;;;;;;6.97;1.38;;;12.80;99.90;;;;;;5055404;28;20563;-71
2021/04/01 09:23:07;;;;;;;7.03;1.40;;;13.00;99.90;;;;;;5047406;28;20032;-74
2021/04/01 09:25:37;;;;;;;13.30;1.15;;;12.90;99.90;;;;;;5044900;28;20048;-74
2021/04/01 09:28:06;;;;;;;2.47;1.15;;;12.80;99.90;;;;;;5045429;28;20021;-73
2021/04/01 09:30:31;;;;;;;2.58;1.20;;;12.70;99.90;;;;;;5043903;28;20028;-73
2021/04/01 09:33:02;;;;;;;1.88;0.88;;;12.90;99.90;;;;;;5062746;28;20033;-72
2021/04/01 09:35:29;;;;;;;4.63;1.20;;;12.80;99.90;;;;;;5065328;28;20029;-72
2021/04/01 09:38:06;;;;;;;4.55;1.50;;;12.90;99.90;;;;;;5065273;28;20520;-72
2021/04/01 09:40:43;;;;;;;5.30;1.05;;;13.10;99.90;;;;;;5049207;28;20033;-73
2021/04/01 09:43:15;;;;;;;3.67;1.48;;;13.30;99.90;;;;;;5046604;28;20408;-73
2021/04/01 09:45:42;;;;;;;5.65;1.73;;;13.60;99.90;;;;;;5045677;28;20028;-76
2021/04/01 09:48:09;;;;;;;1.95;1.10;;;13.80;99.90;;;;;;5063408;28;20037;-73
2021/04/01 09:50:43;;;;;;;3.50;1.02;;;13.70;99.90;;;;;;5064571;28;20028;-72
2021/04/01 09:53:21;;;;;;;2.85;1.30;;;13.50;99.90;;;;;;5064699;28;20051;-74
2021/04/01 09:55:52;;;;;;;1.88;0.82;;;13.50;99.90;;;;;;5064527;28;20029;-73
2021/04/01 09:58:31;;;;;;;2.28;0.90;;;13.60;99.90;;;;;;5064707;28;20036;-74
2021/04/01 10:01:31;;;;;;;1.25;0.75;;;13.80;99.90;;;;;;5064597;28;20120;-74
2021/04/01 10:04:07;;;;;;;2.67;1.15;;;13.60;99.90;;;;;;5064529;28;20033;-73
2021/04/01 10:06:50;;;;;;;5.22;1.23;;;13.50;99.90;;;;;;5064484;28;20025;-70
2021/04/01 10:09:20;;;;;;;1.08;0.63;;;13.70;99.90;;;;;;5064468;28;20044;-72
2021/04/01 10:12:08;;;;;;;2.25;0.70;;;14.10;99.90;;;;;;5064724;28;20033;-71
2021/04/01 10:14:34;;;;;;;7.20;0.73;;;14.10;99.90;;;;;;5064376;28;20516;-71
2021/04/01 10:17:10;;;;;;;3.10;0.77;;;14.10;99.90;;;;;;5063113;28;20424;-73
2021/04/01 10:19:47;;;;;;;3.20;0.80;;;13.90;99.90;;;;;;5062896;28;20037;-70
2021/04/01 10:22:25;;;;;;;1.35;0.80;;;13.80;99.90;;;;;;5063486;28;20053;-71
2021/04/01 10:25:28;;;;;;;4.93;1.00;;;13.90;99.90;;;;;;5044756;28;20052;-74
2021/04/01 10:28:02;;;;;;;1.10;0.55;;;14.10;99.90;;;;;;5024285;28;20044;-71
2021/04/01 10:30:31;;;;;;;1.55;0.60;;;13.80;99.90;;;;;;5024467;28;20032;-72
2021/04/01 10:33:08;;;;;;;1.73;0.55;;;13.60;99.90;;;;;;5061565;28;20029;-71
2021/04/01 10:35:38;;;;;;;5.88;0.95;;;13.60;99.90;;;;;;5063844;28;20025;-72
2021/04/01 10:38:05;;;;;;;0.75;0.65;;;14.10;99.90;;;;;;5064029;28;20037;-71
2021/04/01 10:40:33;;;;;;;10.18;1.13;;;14.50;99.90;;;;;;5063826;28;20028;-72
2021/04/01 10:43:09;;;;;;;3.03;1.02;;;14.50;99.90;;;;;;5043788;28;20093;-70
2021/04/01 10:45:36;;;;;;;1.27;0.60;;;14.50;99.90;;;;;;5041423;28;20026;-70
2021/04/01 10:48:53;;;;;;;3.17;0.63;;;14.50;99.90;;;;;;5042569;28;20025;-71
2021/04/01 10:51:22;;;;;;;1.67;0.88;;;14.40;99.90;;;;;;5062762;28;20076;-72
2021/04/01 10:53:49;;;;;;;3.72;0.95;;;14.20;99.90;;;;;;5043006;28;20024;-73
2021/04/01 10:56:15;;;;;;;3.13;0.98;;;14.40;99.90;;;;;;5043503;28;20052;-72
2021/04/01 10:58:55;;;;;;;3.40;0.82;;;14.70;99.90;;;;;;5043158;28;20753;-72
2021/04/01 11:01:33;;;;;;;2.58;0.73;;;14.60;99.90;;;;;;5043638;28;20036;-72
2021/04/01 11:04:01;;;;;;;4.13;1.20;;;14.40;99.90;;;;;;5046065;28;20174;-72
2021/04/01 11:06:31;;;;;;;1.98;0.55;;;14.20;99.90;;;;;;5061689;28;20044;-72
2021/04/01 11:08:59;;;;;;;1.70;0.45;;;14.20;99.90;;;;;;5061824;28;20029;-73
2021/04/01 11:11:39;;;;;;;15.43;1.45;;;14.10;99.90;;;;;;5063107;28;20029;-72
2021/04/01 11:14:06;;;;;;;1.48;0.70;;;13.90;99.90;;;;;;5061602;28;20078;-72
2021/04/01 11:16:36;;;;;;;3.85;0.50;;;13.60;99.90;;;;;;5061441;28;20026;-71
2021/04/01 11:19:02;;;;;;;3.03;0.95;;;13.60;99.90;;;;;;5062263;28;20075;-71
2021/04/01 11:21:32;;;;;;;3.78;0.73;;;13.50;99.90;;;;;;5053450;28;20080;-71
2021/04/01 11:23:58;;;;;;;2.45;0.63;;;13.70;99.90;;;;;;5042906;28;20048;-72
2021/04/01 11:26:28;;;;;;;3.10;0.90;;;13.70;99.90;;;;;;5042827;28;20030;-73
2021/04/01 11:28:54;;;;;;;1.90;0.60;;;13.80;99.90;;;;;;5040554;28;20034;-71
2021/04/01 11:31:26;;;;;;;0.88;0.40;;;13.90;99.90;;;;;;5040461;28;20112;-71
2021/04/01 11:33:54;;;;;;;1.55;0.60;;;14.10;99.90;;;;;;5041992;28;20150;-72
2021/04/01 11:36:22;;;;;;;0.65;0.47;;;14.20;99.90;;;;;;5042438;28;20085;-72
2021/04/01 11:38:53;;;;;;;1.48;0.82;;;14.00;99.90;;;;;;5042881;28;20029;-71
2021/04/01 11:41:21;;;;;;;1.65;0.60;;;14.00;99.90;;;;;;5043106;28;20021;-72
2021/04/01 11:43:54;;;;;;;2.42;0.82;;;14.10;99.90;;;;;;5043183;28;20045;-71
2021/04/01 11:46:22;;;;;;;2.10;0.77;;;14.20;99.90;;;;;;5046552;28;20038;-71
2021/04/01 11:48:50;;;;;;;1.45;0.40;;;14.40;99.90;;;;;;5046917;28;20029;-73
2021/04/01 11:51:31;;;;;;;3.03;1.38;;;14.50;99.90;;;;;;5046797;28;20025;-71
2021/04/01 11:53:58;;;;;;;2.55;0.55;;;14.20;99.90;;;;;;5058154;28;20041;-73
2021/04/01 11:56:44;;;;;;;1.77;0.65;;;14.00;99.90;;;;;;5064045;28;20032;-72
2021/04/01 11:59:30;;;;;;;1.02;0.65;;;14.00;99.90;;;;;;5046415;28;20033;-71
2021/04/01 12:02:09;;;;;;;2.28;0.70;;;14.00;99.90;;;;;;5045534;28;20029;-71
2021/04/01 12:04:37;;;;;;;0.70;0.40;;;14.40;99.90;;;;;;5043274;28;20055;-72
2021/04/01 12:07:06;;;;;;;0.63;0.30;;;14.40;99.90;;;;;;5038508;28;20390;-70
2021/04/01 12:09:32;;;;;;;0.65;0.32;;;14.30;99.90;;;;;;5050369;28;20029;-74
2021/04/01 12:11:57;;;;;;;2.33;0.88;;;14.00;99.90;;;;;;5041210;28;20033;-74
2021/04/01 12:14:33;;;;;;;3.35;0.82;;;13.80;99.90;;;;;;5034558;28;20037;-72
2021/04/01 12:17:04;;;;;;;1.15;0.70;;;13.70;99.90;;;;;;5037348;28;20022;-73
2021/04/01 12:19:30;;;;;;;2.70;0.88;;;13.60;99.90;;;;;;5043923;28;20029;-70
2021/04/01 12:21:56;;;;;;;3.63;0.50;;;13.80;99.90;;;;;;5047256;28;20081;-75
2021/04/01 12:24:21;;;;;;;0.75;0.60;;;14.40;99.90;;;;;;5046777;28;20070;-70
2021/04/01 12:26:50;;;;;;;1.55;0.65;;;15.20;99.90;;;;;;5048346;28;20045;-70
2021/04/01 12:29:16;;;;;;;5.53;1.05;;;15.60;99.90;;;;;;5064310;28;20048;-71
2021/04/01 12:31:51;;;;;;;1.38;0.73;;;15.80;99.90;;;;;;5048547;28;20025;-71
2021/04/01 12:34:31;;;;;;;1.75;0.65;;;15.30;99.90;;;;;;5045157;28;20025;-70
2021/04/01 12:37:04;;;;;;;1.95;0.70;;;14.90;99.90;;;;;;5044141;28;20460;-71
2021/04/01 12:39:32;;;;;;;0.82;0.50;;;14.50;99.90;;;;;;5044059;28;20030;-70
2021/04/01 12:41:58;;;;;;;0.73;0.52;;;14.50;99.90;;;;;;5045281;28;20120;-72
2021/04/01 12:44:38;;;;;;;2.85;0.60;;;14.50;99.90;;;;;;5045053;28;20090;-71
2021/04/01 12:47:04;;;;;;;1.50;0.73;;;14.90;99.90;;;;;;5045049;28;20508;-70
2021/04/01 12:49:36;;;;;;;2.88;0.73;;;14.90;99.90;;;;;;5043655;28;20470;-70
2021/04/01 12:52:02;;;;;;;2.85;0.63;;;15.00;99.90;;;;;;5045489;28;20018;-71
2021/04/01 12:54:33;;;;;;;2.47;1.17;;;15.00;99.90;;;;;;5043620;28;20022;-73
2021/04/01 12:57:04;;;;;;;1.55;0.82;;;15.20;99.90;;;;;;5044106;28;20057;-71
2021/04/01 12:59:37;;;;;;;0.98;0.65;;;15.20;99.90;;;;;;5044649;28;20061;-71
2021/04/01 13:02:08;;;;;;;8.60;1.20;;;15.20;99.90;;;;;;5043752;28;20056;-73
2021/04/01 13:04:35;;;;;;;1.77;0.80;;;15.10;99.90;;;;;;5043439;28;20042;-71
2021/04/01 13:12:25;;;;;;;0.77;0.50;;;14.00;99.90;;;;;;5025268;28;20037;-71
2021/04/01 13:14:51;;;;;;;1.67;0.63;;;13.90;99.90;;;;;;5025194;28;20022;-71
2021/04/01 13:17:18;;;;;;;4.55;1.13;;;13.40;99.90;;;;;;5025003;28;20171;-71
2021/04/01 13:19:43;;;;;;;1.63;0.75;;;13.10;99.90;;;;;;5024988;28;20083;-71
2021/04/01 13:27:03;;;;;;;3.08;0.80;;;13.00;99.90;;;;;;5059870;28;20117;-72
2021/04/01 13:29:34;;;;;;;2.22;1.00;;;12.80;99.90;;;;;;5052897;28;20060;-73
2021/04/01 13:32:07;;;;;;;2.88;0.75;;;12.50;99.90;;;;;;5053904;28;20029;-71
2021/04/01 13:34:39;;;;;;;5.15;0.88;;;12.30;99.90;;;;;;5063828;28;20025;-71
2021/04/01 13:37:42;;;;;;;3.75;1.38;;;12.00;99.90;;;;;;5064713;28;20041;-72
2021/04/01 13:40:03;;;;;;;5.00;1.00;;;12.00;99.90;;;;;;5065631;28;20107;-71
2021/04/01 13:42:32;;;;;;;3.28;1.00;;;11.90;99.90;;;;;;5061381;28;20039;-71
2021/04/01 13:45:04;;;;;;;14.88;1.23;;;11.90;99.90;;;;;;5031378;28;20076;-73
2021/04/01 13:47:30;;;;;;;2.63;1.05;;;11.80;99.90;;;;;;5045335;28;20398;-72
2021/04/01 13:49:57;;;;;;;4.75;0.93;;;11.50;99.90;;;;;;5063291;28;20024;-71
2021/04/01 13:52:32;;;;;;;3.90;1.10;;;11.40;99.90;;;;;;5064098;28;20036;-71
2021/04/01 14:08:56;;;;;;;2.75;1.25;;;11.70;99.90;;;;;;5043342;28;20044;-71
2021/04/01 14:11:22;;;;;;;8.43;1.55;;;12.00;99.90;;;;;;5044569;28;20021;-72
2021/04/01 14:13:47;;;;;;;3.85;1.52;;;12.30;99.90;;;;;;5045064;28;20108;-71
2021/04/01 14:16:14;;;;;;;1.30;1.00;;;12.80;99.90;;;;;;5044623;28;20036;-70
2021/04/01 14:18:41;;;;;;;1.40;1.15;;;13.20;99.90;;;;;;5044560;28;20057;-70
2021/04/01 14:21:07;;;;;;;4.20;1.48;;;13.50;99.90;;;;;;5043282;28;20029;-71
2021/04/01 14:23:35;;;;;;;3.30;1.40;;;13.50;99.90;;;;;;5045064;28;20053;-72
2021/04/01 14:26:05;;;;;;;1.88;1.13;;;13.60;99.90;;;;;;5045005;28;20026;-71
2021/04/01 14:28:31;;;;;;;2.45;1.05;;;13.50;99.90;;;;;;5063131;28;20040;-72